sensor_id;sensor_type;location;lat;lon;timestamp;P1;durP1;ratioP1;P2;durP2;ratioP2
26588;SDS011;14235;48.532;8.722;2022-07-24T00:00:31;8.25;;;7.65;;
26588;SDS011;14235;48.532;8.722;2022-07-24T00:02:56;8.45;;;7.85;;
26588;SDS011;14235;48.532;8.722;2022-07-24T00:05:22;7.90;;;7.32;;
26588;SDS011;14235;48.532;8.722;2022-07-24T00:07:48;8.50;;;7.80;;
26588;SDS011;14235;48.532;8.722;2022-07-24T00:10:13;8.10;;;7.55;;
26588;SDS011;14235;48.532;8.722;2022-07-24T00:12:39;8.73;;;7.93;;
26588;SDS011;14235;48.532;8.722;2022-07-24T00:15:05;8.60;;;7.90;;
26588;SDS011;14235;48.532;8.722;2022-07-24T00:17:31;8.82;;;8.02;;
26588;SDS011;14235;48.532;8.722;2022-07-24T00:19:56;8.15;;;7.50;;
26588;SDS011;14235;48.532;8.722;2022-07-24T00:22:22;7.85;;;7.30;;
26588;SDS011;14235;48.532;8.722;2022-07-24T00:24:48;8.30;;;7.50;;
26588;SDS011;14235;48.532;8.722;2022-07-24T00:27:14;8.43;;;7.82;;
26588;SDS011;14235;48.532;8.722;2022-07-24T00:29:41;8.45;;;7.75;;
26588;SDS011;14235;48.532;8.722;2022-07-24T00:32:07;8.80;;;8.10;;
26588;SDS011;14235;48.532;8.722;2022-07-24T00:34:33;8.00;;;7.40;;
26588;SDS011;14235;48.532;8.722;2022-07-24T00:36:58;8.73;;;7.88;;
26588;SDS011;14235;48.532;8.722;2022-07-24T00:39:24;8.40;;;7.72;;
26588;SDS011;14235;48.532;8.722;2022-07-24T00:41:50;8.68;;;7.97;;
26588;SDS011;14235;48.532;8.722;2022-07-24T00:44:19;8.40;;;7.78;;
26588;SDS011;14235;48.532;8.722;2022-07-24T00:46:46;8.25;;;7.60;;
26588;SDS011;14235;48.532;8.722;2022-07-24T00:49:13;7.78;;;7.07;;
26588;SDS011;14235;48.532;8.722;2022-07-24T00:51:40;8.20;;;7.60;;
26588;SDS011;14235;48.532;8.722;2022-07-24T00:54:07;8.63;;;7.78;;
26588;SDS011;14235;48.532;8.722;2022-07-24T00:56:33;7.85;;;7.35;;
26588;SDS011;14235;48.532;8.722;2022-07-24T00:58:59;8.60;;;7.80;;
26588;SDS011;14235;48.532;8.722;2022-07-24T01:01:25;8.90;;;8.00;;
26588;SDS011;14235;48.532;8.722;2022-07-24T01:03:51;8.85;;;7.93;;
26588;SDS011;14235;48.532;8.722;2022-07-24T01:06:17;8.38;;;7.78;;
26588;SDS011;14235;48.532;8.722;2022-07-24T01:08:44;10.38;;;8.05;;
26588;SDS011;14235;48.532;8.722;2022-07-24T01:11:10;8.50;;;7.80;;
26588;SDS011;14235;48.532;8.722;2022-07-24T01:13:37;8.18;;;7.50;;
26588;SDS011;14235;48.532;8.722;2022-07-24T01:16:03;9.15;;;8.23;;
26588;SDS011;14235;48.532;8.722;2022-07-24T01:18:29;8.88;;;8.05;;
26588;SDS011;14235;48.532;8.722;2022-07-24T01:20:55;8.82;;;7.95;;
26588;SDS011;14235;48.532;8.722;2022-07-24T01:23:21;8.93;;;8.02;;
26588;SDS011;14235;48.532;8.722;2022-07-24T01:25:47;8.75;;;8.13;;
26588;SDS011;14235;48.532;8.722;2022-07-24T01:28:13;8.35;;;7.75;;
26588;SDS011;14235;48.532;8.722;2022-07-24T01:30:39;9.13;;;8.27;;
26588;SDS011;14235;48.532;8.722;2022-07-24T01:33:05;8.98;;;8.02;;
26588;SDS011;14235;48.532;8.722;2022-07-24T01:35:32;10.10;;;8.57;;
26588;SDS011;14235;48.532;8.722;2022-07-24T01:37:58;9.35;;;8.38;;
26588;SDS011;14235;48.532;8.722;2022-07-24T01:40:24;8.40;;;7.75;;
26588;SDS011;14235;48.532;8.722;2022-07-24T01:42:50;9.32;;;8.57;;
26588;SDS011;14235;48.532;8.722;2022-07-24T01:45:17;9.10;;;8.40;;
26588;SDS011;14235;48.532;8.722;2022-07-24T01:47:43;9.27;;;8.57;;
26588;SDS011;14235;48.532;8.722;2022-07-24T01:50:10;9.57;;;8.65;;
26588;SDS011;14235;48.532;8.722;2022-07-24T01:52:37;8.68;;;7.93;;
26588;SDS011;14235;48.532;8.722;2022-07-24T01:55:03;10.20;;;8.82;;
26588;SDS011;14235;48.532;8.722;2022-07-24T01:57:29;9.93;;;8.45;;
26588;SDS011;14235;48.532;8.722;2022-07-24T01:59:55;9.23;;;8.52;;
26588;SDS011;14235;48.532;8.722;2022-07-24T02:02:21;8.10;;;7.50;;
26588;SDS011;14235;48.532;8.722;2022-07-24T02:04:47;8.63;;;7.93;;
26588;SDS011;14235;48.532;8.722;2022-07-24T02:07:13;9.00;;;8.25;;
26588;SDS011;14235;48.532;8.722;2022-07-24T02:09:39;8.95;;;8.10;;
26588;SDS011;14235;48.532;8.722;2022-07-24T02:12:05;9.27;;;8.57;;
26588;SDS011;14235;48.532;8.722;2022-07-24T02:14:32;9.35;;;8.40;;
26588;SDS011;14235;48.532;8.722;2022-07-24T02:16:58;8.80;;;8.10;;
26588;SDS011;14235;48.532;8.722;2022-07-24T02:19:24;9.30;;;8.43;;
26588;SDS011;14235;48.532;8.722;2022-07-24T02:21:50;8.70;;;7.80;;
26588;SDS011;14235;48.532;8.722;2022-07-24T02:24:16;9.23;;;8.13;;
26588;SDS011;14235;48.532;8.722;2022-07-24T02:26:42;8.00;;;7.45;;
26588;SDS011;14235;48.532;8.722;2022-07-24T02:29:08;8.48;;;7.88;;
26588;SDS011;14235;48.532;8.722;2022-07-24T02:31:34;9.18;;;8.30;;
26588;SDS011;14235;48.532;8.722;2022-07-24T02:34:00;9.05;;;8.35;;
26588;SDS011;14235;48.532;8.722;2022-07-24T02:36:26;9.23;;;8.52;;
26588;SDS011;14235;48.532;8.722;2022-07-24T02:38:52;8.98;;;8.27;;
26588;SDS011;14235;48.532;8.722;2022-07-24T02:41:18;9.18;;;8.15;;
26588;SDS011;14235;48.532;8.722;2022-07-24T02:43:44;8.85;;;8.05;;
26588;SDS011;14235;48.532;8.722;2022-07-24T02:46:10;8.52;;;7.93;;
26588;SDS011;14235;48.532;8.722;2022-07-24T02:48:36;8.50;;;7.80;;
26588;SDS011;14235;48.532;8.722;2022-07-24T02:51:02;8.65;;;8.00;;
26588;SDS011;14235;48.532;8.722;2022-07-24T02:53:28;8.60;;;7.90;;
26588;SDS011;14235;48.532;8.722;2022-07-24T02:55:54;9.18;;;8.20;;
26588;SDS011;14235;48.532;8.722;2022-07-24T02:58:20;8.80;;;8.20;;
26588;SDS011;14235;48.532;8.722;2022-07-24T03:00:46;11.02;;;8.15;;
26588;SDS011;14235;48.532;8.722;2022-07-24T03:03:12;8.68;;;7.97;;
26588;SDS011;14235;48.532;8.722;2022-07-24T03:05:38;9.25;;;8.45;;
26588;SDS011;14235;48.532;8.722;2022-07-24T03:08:04;8.68;;;7.97;;
26588;SDS011;14235;48.532;8.722;2022-07-24T03:10:30;9.27;;;8.40;;
26588;SDS011;14235;48.532;8.722;2022-07-24T03:12:56;9.40;;;8.60;;
26588;SDS011;14235;48.532;8.722;2022-07-24T03:15:22;9.15;;;8.20;;
26588;SDS011;14235;48.532;8.722;2022-07-24T03:17:49;10.15;;;8.02;;
26588;SDS011;14235;48.532;8.722;2022-07-24T03:20:15;8.73;;;8.02;;
26588;SDS011;14235;48.532;8.722;2022-07-24T03:22:41;8.80;;;8.15;;
26588;SDS011;14235;48.532;8.722;2022-07-24T03:25:07;9.48;;;8.57;;
26588;SDS011;14235;48.532;8.722;2022-07-24T03:27:33;8.55;;;7.90;;
26588;SDS011;14235;48.532;8.722;2022-07-24T03:29:59;9.52;;;8.45;;
26588;SDS011;14235;48.532;8.722;2022-07-24T03:32:25;8.90;;;8.20;;
26588;SDS011;14235;48.532;8.722;2022-07-24T03:34:51;8.27;;;7.57;;
26588;SDS011;14235;48.532;8.722;2022-07-24T03:37:17;8.48;;;7.65;;
26588;SDS011;14235;48.532;8.722;2022-07-24T03:39:43;9.15;;;8.25;;
26588;SDS011;14235;48.532;8.722;2022-07-24T03:42:09;9.60;;;8.80;;
26588;SDS011;14235;48.532;8.722;2022-07-24T03:44:35;9.30;;;8.55;;
26588;SDS011;14235;48.532;8.722;2022-07-24T03:47:01;9.05;;;8.35;;
26588;SDS011;14235;48.532;8.722;2022-07-24T03:49:27;8.73;;;8.02;;
26588;SDS011;14235;48.532;8.722;2022-07-24T03:51:53;8.35;;;7.65;;
26588;SDS011;14235;48.532;8.722;2022-07-24T03:54:19;8.57;;;7.78;;
26588;SDS011;14235;48.532;8.722;2022-07-24T03:56:46;8.73;;;8.00;;
26588;SDS011;14235;48.532;8.722;2022-07-24T03:59:12;7.95;;;7.30;;
26588;SDS011;14235;48.532;8.722;2022-07-24T04:01:39;9.23;;;8.52;;
26588;SDS011;14235;48.532;8.722;2022-07-24T04:04:04;9.55;;;8.48;;
26588;SDS011;14235;48.532;8.722;2022-07-24T04:06:31;8.95;;;8.25;;
26588;SDS011;14235;48.532;8.722;2022-07-24T04:08:57;8.63;;;7.93;;
26588;SDS011;14235;48.532;8.722;2022-07-24T04:11:23;8.88;;;7.63;;
26588;SDS011;14235;48.532;8.722;2022-07-24T04:13:49;9.35;;;8.55;;
26588;SDS011;14235;48.532;8.722;2022-07-24T04:16:15;9.88;;;8.38;;
26588;SDS011;14235;48.532;8.722;2022-07-24T04:18:41;8.85;;;8.15;;
26588;SDS011;14235;48.532;8.722;2022-07-24T04:21:07;9.15;;;8.40;;
26588;SDS011;14235;48.532;8.722;2022-07-24T04:23:33;8.68;;;7.90;;
26588;SDS011;14235;48.532;8.722;2022-07-24T04:25:59;8.98;;;8.23;;
26588;SDS011;14235;48.532;8.722;2022-07-24T04:28:25;9.40;;;8.68;;
26588;SDS011;14235;48.532;8.722;2022-07-24T04:30:51;9.45;;;8.75;;
26588;SDS011;14235;48.532;8.722;2022-07-24T04:33:17;8.45;;;7.75;;
26588;SDS011;14235;48.532;8.722;2022-07-24T04:35:43;8.23;;;7.60;;
26588;SDS011;14235;48.532;8.722;2022-07-24T04:38:09;8.57;;;7.97;;
26588;SDS011;14235;48.532;8.722;2022-07-24T04:40:35;8.45;;;7.82;;
26588;SDS011;14235;48.532;8.722;2022-07-24T04:43:01;9.23;;;8.48;;
26588;SDS011;14235;48.532;8.722;2022-07-24T04:45:27;8.85;;;8.15;;
26588;SDS011;14235;48.532;8.722;2022-07-24T04:47:53;9.15;;;8.45;;
26588;SDS011;14235;48.532;8.722;2022-07-24T04:50:18;9.52;;;8.60;;
26588;SDS011;14235;48.532;8.722;2022-07-24T04:52:44;8.40;;;7.75;;
26588;SDS011;14235;48.532;8.722;2022-07-24T04:55:10;8.90;;;8.20;;
26588;SDS011;14235;48.532;8.722;2022-07-24T04:57:36;8.48;;;7.82;;
26588;SDS011;14235;48.532;8.722;2022-07-24T05:00:02;8.68;;;7.97;;
26588;SDS011;14235;48.532;8.722;2022-07-24T05:02:30;9.27;;;8.48;;
26588;SDS011;14235;48.532;8.722;2022-07-24T05:04:56;9.20;;;8.50;;
26588;SDS011;14235;48.532;8.722;2022-07-24T05:07:22;9.38;;;8.52;;
26588;SDS011;14235;48.532;8.722;2022-07-24T05:09:48;9.15;;;8.25;;
26588;SDS011;14235;48.532;8.722;2022-07-24T05:12:13;9.88;;;9.07;;
26588;SDS011;14235;48.532;8.722;2022-07-24T05:14:39;9.80;;;8.80;;
26588;SDS011;14235;48.532;8.722;2022-07-24T05:17:04;8.48;;;7.88;;
26588;SDS011;14235;48.532;8.722;2022-07-24T05:19:30;9.23;;;8.48;;
26588;SDS011;14235;48.532;8.722;2022-07-24T05:21:56;9.88;;;9.02;;
26588;SDS011;14235;48.532;8.722;2022-07-24T05:24:21;9.50;;;8.70;;
26588;SDS011;14235;48.532;8.722;2022-07-24T05:26:47;9.05;;;8.25;;
26588;SDS011;14235;48.532;8.722;2022-07-24T05:29:13;10.80;;;9.80;;
26588;SDS011;14235;48.532;8.722;2022-07-24T05:31:38;9.02;;;8.23;;
26588;SDS011;14235;48.532;8.722;2022-07-24T05:34:04;9.50;;;8.73;;
26588;SDS011;14235;48.532;8.722;2022-07-24T05:36:31;9.52;;;8.73;;
26588;SDS011;14235;48.532;8.722;2022-07-24T05:38:56;10.05;;;9.25;;
26588;SDS011;14235;48.532;8.722;2022-07-24T05:41:22;9.68;;;8.88;;
26588;SDS011;14235;48.532;8.722;2022-07-24T05:43:47;8.98;;;8.32;;
26588;SDS011;14235;48.532;8.722;2022-07-24T05:46:13;10.05;;;9.20;;
26588;SDS011;14235;48.532;8.722;2022-07-24T05:48:39;9.85;;;8.98;;
26588;SDS011;14235;48.532;8.722;2022-07-24T05:51:04;9.65;;;8.85;;
26588;SDS011;14235;48.532;8.722;2022-07-24T05:53:30;10.13;;;9.32;;
26588;SDS011;14235;48.532;8.722;2022-07-24T05:55:55;9.98;;;9.07;;
26588;SDS011;14235;48.532;8.722;2022-07-24T05:58:21;9.13;;;8.38;;
26588;SDS011;14235;48.532;8.722;2022-07-24T06:00:46;9.45;;;8.60;;
26588;SDS011;14235;48.532;8.722;2022-07-24T06:03:12;9.77;;;8.73;;
26588;SDS011;14235;48.532;8.722;2022-07-24T06:05:38;10.68;;;9.68;;
26588;SDS011;14235;48.532;8.722;2022-07-24T06:08:04;9.85;;;9.15;;
26588;SDS011;14235;48.532;8.722;2022-07-24T06:10:30;10.07;;;9.07;;
26588;SDS011;14235;48.532;8.722;2022-07-24T06:12:56;10.10;;;9.20;;
26588;SDS011;14235;48.532;8.722;2022-07-24T06:15:22;10.68;;;9.77;;
26588;SDS011;14235;48.532;8.722;2022-07-24T06:17:48;10.50;;;9.60;;
26588;SDS011;14235;48.532;8.722;2022-07-24T06:20:14;10.13;;;9.32;;
26588;SDS011;14235;48.532;8.722;2022-07-24T06:22:41;10.40;;;9.43;;
26588;SDS011;14235;48.532;8.722;2022-07-24T06:25:10;9.93;;;9.18;;
26588;SDS011;14235;48.532;8.722;2022-07-24T06:27:40;10.43;;;9.55;;
26588;SDS011;14235;48.532;8.722;2022-07-24T06:30:11;9.65;;;8.85;;
26588;SDS011;14235;48.532;8.722;2022-07-24T06:32:41;10.05;;;8.98;;
26588;SDS011;14235;48.532;8.722;2022-07-24T06:35:06;9.45;;;8.57;;
26588;SDS011;14235;48.532;8.722;2022-07-24T06:37:32;10.10;;;9.13;;
26588;SDS011;14235;48.532;8.722;2022-07-24T06:39:58;9.48;;;8.65;;
26588;SDS011;14235;48.532;8.722;2022-07-24T06:42:23;8.98;;;8.38;;
26588;SDS011;14235;48.532;8.722;2022-07-24T06:44:49;9.63;;;8.93;;
26588;SDS011;14235;48.532;8.722;2022-07-24T06:47:15;9.55;;;8.63;;
26588;SDS011;14235;48.532;8.722;2022-07-24T06:49:40;10.38;;;9.48;;
26588;SDS011;14235;48.532;8.722;2022-07-24T06:52:06;8.80;;;8.20;;
26588;SDS011;14235;48.532;8.722;2022-07-24T06:54:31;10.00;;;9.05;;
26588;SDS011;14235;48.532;8.722;2022-07-24T06:56:57;9.98;;;9.15;;
26588;SDS011;14235;48.532;8.722;2022-07-24T06:59:22;9.20;;;8.50;;
26588;SDS011;14235;48.532;8.722;2022-07-24T07:01:48;8.90;;;8.20;;
26588;SDS011;14235;48.532;8.722;2022-07-24T07:04:14;9.05;;;8.35;;
26588;SDS011;14235;48.532;8.722;2022-07-24T07:06:39;9.18;;;8.55;;
26588;SDS011;14235;48.532;8.722;2022-07-24T07:09:05;8.95;;;8.05;;
26588;SDS011;14235;48.532;8.722;2022-07-24T07:11:30;9.50;;;8.68;;
26588;SDS011;14235;48.532;8.722;2022-07-24T07:13:56;8.85;;;8.18;;
26588;SDS011;14235;48.532;8.722;2022-07-24T07:16:22;9.20;;;8.43;;
26588;SDS011;14235;48.532;8.722;2022-07-24T07:18:47;8.55;;;7.88;;
26588;SDS011;14235;48.532;8.722;2022-07-24T07:21:14;9.27;;;8.32;;
26588;SDS011;14235;48.532;8.722;2022-07-24T07:23:39;8.55;;;7.70;;
26588;SDS011;14235;48.532;8.722;2022-07-24T07:26:05;8.40;;;7.70;;
26588;SDS011;14235;48.532;8.722;2022-07-24T07:28:31;10.55;;;7.80;;
26588;SDS011;14235;48.532;8.722;2022-07-24T07:30:57;6.85;;;6.32;;
26588;SDS011;14235;48.532;8.722;2022-07-24T07:33:22;7.63;;;6.93;;
26588;SDS011;14235;48.532;8.722;2022-07-24T07:35:48;7.00;;;6.50;;
26588;SDS011;14235;48.532;8.722;2022-07-24T07:38:14;8.05;;;6.68;;
26588;SDS011;14235;48.532;8.722;2022-07-24T07:40:40;7.30;;;6.70;;
26588;SDS011;14235;48.532;8.722;2022-07-24T07:43:05;7.40;;;6.80;;
26588;SDS011;14235;48.532;8.722;2022-07-24T07:45:31;7.00;;;6.40;;
26588;SDS011;14235;48.532;8.722;2022-07-24T07:47:57;6.47;;;6.07;;
26588;SDS011;14235;48.532;8.722;2022-07-24T07:50:23;6.25;;;5.82;;
26588;SDS011;14235;48.532;8.722;2022-07-24T07:52:48;6.82;;;6.22;;
26588;SDS011;14235;48.532;8.722;2022-07-24T07:55:14;6.97;;;6.38;;
26588;SDS011;14235;48.532;8.722;2022-07-24T07:57:40;6.13;;;5.65;;
26588;SDS011;14235;48.532;8.722;2022-07-24T08:00:08;6.50;;;5.97;;
26588;SDS011;14235;48.532;8.722;2022-07-24T08:02:34;6.32;;;5.82;;
26588;SDS011;14235;48.532;8.722;2022-07-24T08:05:00;6.45;;;5.88;;
26588;SDS011;14235;48.532;8.722;2022-07-24T08:07:26;6.50;;;6.00;;
26588;SDS011;14235;48.532;8.722;2022-07-24T08:09:51;6.45;;;5.93;;
26588;SDS011;14235;48.532;8.722;2022-07-24T08:12:17;6.05;;;5.65;;
26588;SDS011;14235;48.532;8.722;2022-07-24T08:14:42;6.45;;;5.85;;
26588;SDS011;14235;48.532;8.722;2022-07-24T08:17:08;7.10;;;6.55;;
26588;SDS011;14235;48.532;8.722;2022-07-24T08:19:34;7.00;;;6.40;;
26588;SDS011;14235;48.532;8.722;2022-07-24T08:21:59;7.63;;;6.90;;
26588;SDS011;14235;48.532;8.722;2022-07-24T08:24:26;7.03;;;6.43;;
26588;SDS011;14235;48.532;8.722;2022-07-24T08:26:52;7.03;;;6.53;;
26588;SDS011;14235;48.532;8.722;2022-07-24T08:29:18;6.80;;;6.20;;
26588;SDS011;14235;48.532;8.722;2022-07-24T08:31:44;6.90;;;6.40;;
26588;SDS011;14235;48.532;8.722;2022-07-24T08:34:10;7.45;;;6.30;;
26588;SDS011;14235;48.532;8.722;2022-07-24T08:36:36;7.55;;;6.57;;
26588;SDS011;14235;48.532;8.722;2022-07-24T08:39:02;7.05;;;6.45;;
26588;SDS011;14235;48.532;8.722;2022-07-24T08:41:30;8.95;;;6.53;;
26588;SDS011;14235;48.532;8.722;2022-07-24T08:44:01;6.80;;;6.30;;
26588;SDS011;14235;48.532;8.722;2022-07-24T08:46:28;7.72;;;6.38;;
26588;SDS011;14235;48.532;8.722;2022-07-24T08:48:53;7.28;;;6.68;;
26588;SDS011;14235;48.532;8.722;2022-07-24T08:51:21;6.78;;;6.38;;
26588;SDS011;14235;48.532;8.722;2022-07-24T08:53:47;6.93;;;6.43;;
26588;SDS011;14235;48.532;8.722;2022-07-24T08:56:14;7.18;;;6.65;;
26588;SDS011;14235;48.532;8.722;2022-07-24T08:58:42;8.35;;;6.85;;
26588;SDS011;14235;48.532;8.722;2022-07-24T09:01:07;6.97;;;6.30;;
26588;SDS011;14235;48.532;8.722;2022-07-24T09:03:41;7.05;;;6.35;;
26588;SDS011;14235;48.532;8.722;2022-07-24T09:06:08;7.30;;;6.70;;
26588;SDS011;14235;48.532;8.722;2022-07-24T09:08:35;6.97;;;6.45;;
26588;SDS011;14235;48.532;8.722;2022-07-24T09:11:02;6.80;;;6.30;;
26588;SDS011;14235;48.532;8.722;2022-07-24T09:13:32;7.13;;;6.43;;
26588;SDS011;14235;48.532;8.722;2022-07-24T09:16:22;7.88;;;7.07;;
26588;SDS011;14235;48.532;8.722;2022-07-24T09:18:50;7.03;;;6.53;;
26588;SDS011;14235;48.532;8.722;2022-07-24T09:21:27;7.13;;;6.63;;
26588;SDS011;14235;48.532;8.722;2022-07-24T09:23:58;6.47;;;6.07;;
26588;SDS011;14235;48.532;8.722;2022-07-24T09:26:50;6.82;;;6.28;;
26588;SDS011;14235;48.532;8.722;2022-07-24T09:29:17;7.25;;;6.60;;
26588;SDS011;14235;48.532;8.722;2022-07-24T09:31:58;6.85;;;6.25;;
26588;SDS011;14235;48.532;8.722;2022-07-24T09:34:27;6.80;;;6.30;;
26588;SDS011;14235;48.532;8.722;2022-07-24T09:37:06;6.97;;;6.47;;
26588;SDS011;14235;48.532;8.722;2022-07-24T09:39:33;7.35;;;6.72;;
26588;SDS011;14235;48.532;8.722;2022-07-24T09:42:03;7.68;;;6.97;;
26588;SDS011;14235;48.532;8.722;2022-07-24T09:44:30;6.90;;;6.30;;
26588;SDS011;14235;48.532;8.722;2022-07-24T09:49:28;7.05;;;6.47;;
26588;SDS011;14235;48.532;8.722;2022-07-24T09:52:07;8.32;;;6.63;;
26588;SDS011;14235;48.532;8.722;2022-07-24T09:54:50;6.63;;;6.13;;
26588;SDS011;14235;48.532;8.722;2022-07-24T09:57:20;7.38;;;6.68;;
26588;SDS011;14235;48.532;8.722;2022-07-24T09:59:56;7.25;;;6.60;;
26588;SDS011;14235;48.532;8.722;2022-07-24T10:02:30;6.72;;;6.22;;
26588;SDS011;14235;48.532;8.722;2022-07-24T10:04:58;7.20;;;6.53;;
26588;SDS011;14235;48.532;8.722;2022-07-24T10:07:25;7.22;;;6.53;;
26588;SDS011;14235;48.532;8.722;2022-07-24T10:09:53;6.95;;;6.45;;
26588;SDS011;14235;48.532;8.722;2022-07-24T10:12:21;6.57;;;6.07;;
26588;SDS011;14235;48.532;8.722;2022-07-24T10:14:49;6.82;;;6.32;;
26588;SDS011;14235;48.532;8.722;2022-07-24T10:17:16;7.63;;;6.93;;
26588;SDS011;14235;48.532;8.722;2022-07-24T10:19:50;7.05;;;6.55;;
26588;SDS011;14235;48.532;8.722;2022-07-24T10:22:18;7.10;;;6.60;;
26588;SDS011;14235;48.532;8.722;2022-07-24T10:24:55;7.13;;;6.63;;
26588;SDS011;14235;48.532;8.722;2022-07-24T10:27:25;6.82;;;6.30;;
26588;SDS011;14235;48.532;8.722;2022-07-24T10:29:53;7.00;;;6.50;;
26588;SDS011;14235;48.532;8.722;2022-07-24T10:32:25;7.13;;;6.63;;
26588;SDS011;14235;48.532;8.722;2022-07-24T10:35:13;6.63;;;5.88;;
26588;SDS011;14235;48.532;8.722;2022-07-24T10:38:02;7.05;;;6.43;;
26588;SDS011;14235;48.532;8.722;2022-07-24T10:40:37;7.07;;;6.57;;
26588;SDS011;14235;48.532;8.722;2022-07-24T10:45:35;6.72;;;5.97;;
26588;SDS011;14235;48.532;8.722;2022-07-24T11:01:28;6.47;;;6.03;;
26588;SDS011;14235;48.532;8.722;2022-07-24T11:03:57;6.70;;;6.10;;
26588;SDS011;14235;48.532;8.722;2022-07-24T11:09:27;6.50;;;5.90;;
26588;SDS011;14235;48.532;8.722;2022-07-24T11:14:23;6.00;;;5.50;;
26588;SDS011;14235;48.532;8.722;2022-07-24T11:16:49;6.05;;;5.63;;
26588;SDS011;14235;48.532;8.722;2022-07-24T11:21:45;6.35;;;5.85;;
26588;SDS011;14235;48.532;8.722;2022-07-24T11:24:18;5.95;;;5.55;;
26588;SDS011;14235;48.532;8.722;2022-07-24T11:26:51;6.53;;;6.03;;
26588;SDS011;14235;48.532;8.722;2022-07-24T11:29:21;6.35;;;5.78;;
26588;SDS011;14235;48.532;8.722;2022-07-24T11:31:49;6.07;;;5.68;;
26588;SDS011;14235;48.532;8.722;2022-07-24T11:34:16;6.53;;;6.00;;
26588;SDS011;14235;48.532;8.722;2022-07-24T11:36:46;6.53;;;6.03;;
26588;SDS011;14235;48.532;8.722;2022-07-24T11:39:15;7.07;;;6.60;;
26588;SDS011;14235;48.532;8.722;2022-07-24T11:41:50;6.55;;;6.05;;
26588;SDS011;14235;48.532;8.722;2022-07-24T11:44:27;7.18;;;6.15;;
26588;SDS011;14235;48.532;8.722;2022-07-24T11:46:56;6.63;;;6.05;;
26588;SDS011;14235;48.532;8.722;2022-07-24T11:49:23;8.75;;;6.60;;
26588;SDS011;14235;48.532;8.722;2022-07-24T11:51:51;6.75;;;6.10;;
26588;SDS011;14235;48.532;8.722;2022-07-24T11:54:22;6.68;;;6.18;;
26588;SDS011;14235;48.532;8.722;2022-07-24T11:56:49;7.03;;;6.30;;
26588;SDS011;14235;48.532;8.722;2022-07-24T11:59:29;6.38;;;5.88;;
26588;SDS011;14235;48.532;8.722;2022-07-24T12:02:02;5.95;;;5.50;;
26588;SDS011;14235;48.532;8.722;2022-07-24T12:04:34;6.32;;;5.90;;
26588;SDS011;14235;48.532;8.722;2022-07-24T12:07:05;6.80;;;6.15;;
26588;SDS011;14235;48.532;8.722;2022-07-24T12:09:44;6.22;;;5.82;;
26588;SDS011;14235;48.532;8.722;2022-07-24T12:12:17;6.22;;;5.75;;
26588;SDS011;14235;48.532;8.722;2022-07-24T12:14:44;6.95;;;6.35;;
26588;SDS011;14235;48.532;8.722;2022-07-24T12:17:10;6.43;;;5.93;;
26588;SDS011;14235;48.532;8.722;2022-07-24T12:19:36;8.10;;;6.35;;
26588;SDS011;14235;48.532;8.722;2022-07-24T12:22:01;7.13;;;6.28;;
26588;SDS011;14235;48.532;8.722;2022-07-24T12:24:27;6.50;;;6.00;;
26588;SDS011;14235;48.532;8.722;2022-07-24T12:26:57;6.43;;;5.85;;
26588;SDS011;14235;48.532;8.722;2022-07-24T12:29:25;7.15;;;6.60;;
26588;SDS011;14235;48.532;8.722;2022-07-24T12:34:40;6.60;;;6.00;;
26588;SDS011;14235;48.532;8.722;2022-07-24T12:37:16;6.88;;;6.20;;
26588;SDS011;14235;48.532;8.722;2022-07-24T12:39:49;6.28;;;5.85;;
26588;SDS011;14235;48.532;8.722;2022-07-24T12:42:16;6.75;;;6.25;;
26588;SDS011;14235;48.532;8.722;2022-07-24T12:44:43;7.13;;;6.57;;
26588;SDS011;14235;48.532;8.722;2022-07-24T12:47:09;6.50;;;6.00;;
26588;SDS011;14235;48.532;8.722;2022-07-24T12:49:39;6.90;;;6.35;;
26588;SDS011;14235;48.532;8.722;2022-07-24T12:52:05;6.75;;;6.20;;
26588;SDS011;14235;48.532;8.722;2022-07-24T12:54:51;7.22;;;6.50;;
26588;SDS011;14235;48.532;8.722;2022-07-24T12:57:19;6.40;;;6.00;;
26588;SDS011;14235;48.532;8.722;2022-07-24T12:59:46;6.60;;;6.00;;
26588;SDS011;14235;48.532;8.722;2022-07-24T13:02:17;7.00;;;6.45;;
26588;SDS011;14235;48.532;8.722;2022-07-24T13:04:49;6.65;;;6.15;;
26588;SDS011;14235;48.532;8.722;2022-07-24T13:07:19;6.00;;;5.60;;
26588;SDS011;14235;48.532;8.722;2022-07-24T13:09:47;6.78;;;6.07;;
26588;SDS011;14235;48.532;8.722;2022-07-24T13:12:14;6.80;;;6.30;;
26588;SDS011;14235;48.532;8.722;2022-07-24T13:14:40;6.43;;;6.03;;
26588;SDS011;14235;48.532;8.722;2022-07-24T13:17:07;6.63;;;6.10;;
26588;SDS011;14235;48.532;8.722;2022-07-24T13:19:35;6.20;;;5.80;;
26588;SDS011;14235;48.532;8.722;2022-07-24T13:22:02;6.40;;;6.00;;
26588;SDS011;14235;48.532;8.722;2022-07-24T13:24:28;6.65;;;6.15;;
26588;SDS011;14235;48.532;8.722;2022-07-24T13:26:57;6.03;;;5.47;;
26588;SDS011;14235;48.532;8.722;2022-07-24T13:29:24;6.47;;;5.80;;
26588;SDS011;14235;48.532;8.722;2022-07-24T13:31:50;6.82;;;6.30;;
26588;SDS011;14235;48.532;8.722;2022-07-24T13:34:19;6.43;;;5.82;;
26588;SDS011;14235;48.532;8.722;2022-07-24T13:36:45;6.53;;;5.93;;
26588;SDS011;14235;48.532;8.722;2022-07-24T13:39:11;6.88;;;6.28;;
26588;SDS011;14235;48.532;8.722;2022-07-24T13:41:37;6.97;;;6.43;;
26588;SDS011;14235;48.532;8.722;2022-07-24T13:44:03;6.40;;;6.00;;
26588;SDS011;14235;48.532;8.722;2022-07-24T13:46:30;6.57;;;6.07;;
26588;SDS011;14235;48.532;8.722;2022-07-24T13:48:57;6.57;;;6.07;;
26588;SDS011;14235;48.532;8.722;2022-07-24T13:51:23;6.40;;;5.90;;
26588;SDS011;14235;48.532;8.722;2022-07-24T13:53:49;6.20;;;5.70;;
26588;SDS011;14235;48.532;8.722;2022-07-24T13:56:14;6.28;;;5.88;;
26588;SDS011;14235;48.532;8.722;2022-07-24T13:58:40;6.55;;;6.05;;
26588;SDS011;14235;48.532;8.722;2022-07-24T14:01:07;6.55;;;6.03;;
26588;SDS011;14235;48.532;8.722;2022-07-24T14:03:33;6.93;;;6.43;;
26588;SDS011;14235;48.532;8.722;2022-07-24T14:05:59;6.35;;;5.85;;
26588;SDS011;14235;48.532;8.722;2022-07-24T14:08:26;6.30;;;5.90;;
26588;SDS011;14235;48.532;8.722;2022-07-24T14:10:52;7.03;;;6.30;;
26588;SDS011;14235;48.532;8.722;2022-07-24T14:13:18;6.93;;;6.13;;
26588;SDS011;14235;48.532;8.722;2022-07-24T14:15:44;6.95;;;6.35;;
26588;SDS011;14235;48.532;8.722;2022-07-24T14:18:09;6.35;;;5.93;;
26588;SDS011;14235;48.532;8.722;2022-07-24T14:20:35;6.57;;;5.97;;
26588;SDS011;14235;48.532;8.722;2022-07-24T14:23:01;6.22;;;5.75;;
26588;SDS011;14235;48.532;8.722;2022-07-24T14:25:26;6.28;;;5.88;;
26588;SDS011;14235;48.532;8.722;2022-07-24T14:27:52;5.90;;;5.50;;
26588;SDS011;14235;48.532;8.722;2022-07-24T14:30:18;6.00;;;5.60;;
26588;SDS011;14235;48.532;8.722;2022-07-24T14:32:43;6.28;;;5.78;;
26588;SDS011;14235;48.532;8.722;2022-07-24T14:35:09;6.53;;;6.03;;
26588;SDS011;14235;48.532;8.722;2022-07-24T14:37:35;6.47;;;6.00;;
26588;SDS011;14235;48.532;8.722;2022-07-24T14:40:06;6.30;;;5.80;;
26588;SDS011;14235;48.532;8.722;2022-07-24T14:42:32;5.82;;;5.50;;
26588;SDS011;14235;48.532;8.722;2022-07-24T14:44:58;6.13;;;5.72;;
26588;SDS011;14235;48.532;8.722;2022-07-24T14:47:24;6.80;;;6.20;;
26588;SDS011;14235;48.532;8.722;2022-07-24T14:49:50;6.20;;;5.80;;
26588;SDS011;14235;48.532;8.722;2022-07-24T14:52:17;7.47;;;6.40;;
26588;SDS011;14235;48.532;8.722;2022-07-24T14:54:44;6.07;;;5.45;;
26588;SDS011;14235;48.532;8.722;2022-07-24T14:57:10;6.30;;;5.88;;
26588;SDS011;14235;48.532;8.722;2022-07-24T14:59:36;6.70;;;6.30;;
26588;SDS011;14235;48.532;8.722;2022-07-24T15:02:02;6.05;;;5.65;;
26588;SDS011;14235;48.532;8.722;2022-07-24T15:04:28;6.32;;;5.93;;
26588;SDS011;14235;48.532;8.722;2022-07-24T15:06:54;5.85;;;5.55;;
26588;SDS011;14235;48.532;8.722;2022-07-24T15:09:20;6.03;;;5.57;;
26588;SDS011;14235;48.532;8.722;2022-07-24T15:11:46;6.10;;;5.70;;
26588;SDS011;14235;48.532;8.722;2022-07-24T15:14:12;6.70;;;6.10;;
26588;SDS011;14235;48.532;8.722;2022-07-24T15:16:37;6.30;;;5.80;;